Time;durP1;ratioP1;P1;durP2;ratioP2;P2;SDS_P1;SDS_P2;PMS_P1;PMS_P2;Temp;Humidity;BMP_temperature;BMP_pressure;BME280_temperature;BME280_humidity;BME280_pressure;Samples;Min_cycle;Max_cycle;Signal;HPM_P1;HPM_P2
2021/09/09 00:05:23;;;;;;;9.33;7.80;;;;;;;;;;6381066;22;20425;-71
2021/09/09 00:07:49;;;;;;;8.63;7.60;;;;;;;;;;6370405;22;20387;-72
2021/09/09 00:10:16;;;;;;;8.70;7.87;;;;;;;;;;6370394;22;20367;-72
2021/09/09 00:12:41;;;;;;;8.23;7.43;;;;;;;;;;6342585;22;20394;-73
2021/09/09 00:15:08;;;;;;;7.80;6.93;;;;;;;;;;6381400;22;20381;-72
2021/09/09 00:20:37;;;;;;;9.20;7.37;;;;;;;;;;6381034;22;20401;-72
2021/09/09 00:23:03;;;;;;;10.67;8.30;;;;;;;;;;6342684;22;20709;-72
2021/09/09 00:25:29;;;;;;;8.73;7.90;;;;;;;;;;6379265;22;20770;-71
2021/09/09 00:27:55;;;;;;;10.80;8.80;;;;;;;;;;6370277;22;20858;-72
2021/09/09 00:30:21;;;;;;;10.20;8.47;;;;;;;;;;6370287;22;20367;-73
2021/09/09 00:32:47;;;;;;;9.43;8.53;;;;;;;;;;6381027;22;20452;-72
2021/09/09 00:35:13;;;;;;;10.53;9.33;;;;;;;;;;6380288;22;20692;-73
2021/09/09 00:37:39;;;;;;;10.83;8.30;;;;;;;;;;6369865;22;20371;-72
2021/09/09 00:40:05;;;;;;;10.43;8.50;;;;;;;;;;6370049;22;20859;-71
2021/09/09 00:42:31;;;;;;;8.90;8.00;;;;;;;;;;6380745;22;20367;-73
2021/09/09 00:44:57;;;;;;;8.60;7.70;;;;;;;;;;6369766;22;20666;-73
2021/09/09 00:50:27;;;;;;;9.67;8.47;;;;;;;;;;6380406;22;20748;-71
2021/09/09 00:52:53;;;;;;;8.60;7.80;;;;;;;;;;6380788;22;20722;-71
2021/09/09 00:55:19;;;;;;;8.70;7.90;;;;;;;;;;6369957;22;20374;-72
2021/09/09 00:57:46;;;;;;;8.43;7.63;;;;;;;;;;6369696;22;20428;-73
2021/09/09 01:00:12;;;;;;;9.43;8.47;;;;;;;;;;6369830;22;20803;-72
2021/09/09 01:05:42;;;;;;;9.77;8.97;;;;;;;;;;6380378;22;20743;-71
2021/09/09 01:08:08;;;;;;;8.90;8.10;;;;;;;;;;6369709;22;20395;-72
2021/09/09 01:10:34;;;;;;;11.87;10.00;;;;;;;;;;6380415;22;20379;-72
2021/09/09 01:13:00;;;;;;;8.70;7.90;;;;;;;;;;6369746;22;20448;-72
2021/09/09 01:15:26;;;;;;;9.23;8.40;;;;;;;;;;6369610;22;20721;-72
2021/09/09 01:20:56;;;;;;;10.73;9.27;;;;;;;;;;6380294;22;20374;-72
2021/09/09 01:23:22;;;;;;;10.20;9.27;;;;;;;;;;6369872;22;20367;-72
2021/09/09 01:25:48;;;;;;;10.67;9.60;;;;;;;;;;6369334;22;20500;-72
2021/09/09 01:28:14;;;;;;;10.53;9.37;;;;;;;;;;6369502;22;20371;-71
2021/09/09 01:30:40;;;;;;;9.73;8.73;;;;;;;;;;6380130;22;20429;-70
2021/09/09 01:33:06;;;;;;;9.90;8.90;;;;;;;;;;6379942;22;20388;-72
2021/09/09 01:35:32;;;;;;;10.40;8.63;;;;;;;;;;6366610;22;20850;-72
2021/09/09 01:37:58;;;;;;;9.37;8.33;;;;;;;;;;6369450;22;20390;-72
2021/09/09 01:40:28;;;;;;;9.17;8.20;;;;;;;;;;6369455;22;20371;-71
2021/09/09 01:42:55;;;;;;;10.33;8.40;;;;;;;;;;6380516;22;20719;-71
2021/09/09 01:45:21;;;;;;;9.43;8.43;;;;;;;;;;6369338;22;20422;-71
2021/09/09 01:50:50;;;;;;;8.10;7.40;;;;;;;;;;6379861;22;20377;-71
2021/09/09 01:53:16;;;;;;;11.37;8.10;;;;;;;;;;6369205;22;20442;-71
2021/09/09 01:55:42;;;;;;;9.83;8.20;;;;;;;;;;6369350;22;20373;-72
2021/09/09 01:58:08;;;;;;;9.17;8.27;;;;;;;;;;6369368;22;20403;-72
2021/09/09 02:00:34;;;;;;;10.80;7.70;;;;;;;;;;6369113;22;20374;-73
2021/09/09 02:06:04;;;;;;;9.70;8.63;;;;;;;;;;6379875;22;20438;-71
2021/09/09 02:08:30;;;;;;;9.47;8.27;;;;;;;;;;6369199;22;20462;-72
2021/09/09 02:10:56;;;;;;;9.40;8.47;;;;;;;;;;6369166;22;20899;-71
2021/09/09 02:13:22;;;;;;;10.33;8.43;;;;;;;;;;6369364;22;20381;-72
2021/09/09 02:15:48;;;;;;;8.87;7.97;;;;;;;;;;6379806;22;20944;-72
2021/09/09 02:21:17;;;;;;;9.63;8.23;;;;;;;;;;6379916;22;20432;-72
2021/09/09 02:23:43;;;;;;;9.50;8.30;;;;;;;;;;6380367;22;20740;-72
2021/09/09 02:26:10;;;;;;;9.70;8.70;;;;;;;;;;6340762;22;20525;-72
2021/09/09 02:28:36;;;;;;;10.23;8.80;;;;;;;;;;6368986;22;20439;-72
2021/09/09 02:31:02;;;;;;;10.90;9.20;;;;;;;;;;6368903;22;20399;-72
2021/09/09 02:33:28;;;;;;;11.20;8.40;;;;;;;;;;6368914;22;20420;-72
2021/09/09 02:35:54;;;;;;;9.70;8.80;;;;;;;;;;6368836;22;20367;-72
2021/09/09 02:38:20;;;;;;;9.83;8.83;;;;;;;;;;6369019;22;20787;-72
2021/09/09 02:40:46;;;;;;;10.20;9.20;;;;;;;;;;6379837;22;20391;-73
2021/09/09 02:43:12;;;;;;;10.27;9.17;;;;;;;;;;6380079;22;20386;-72
2021/09/09 02:45:38;;;;;;;8.63;7.80;;;;;;;;;;6368879;22;20903;-72
2021/09/09 02:51:07;;;;;;;8.73;7.93;;;;;;;;;;6379454;22;20362;-72
2021/09/09 02:53:33;;;;;;;9.87;8.87;;;;;;;;;;6368823;22;20688;-72
2021/09/09 02:55:59;;;;;;;9.47;7.93;;;;;;;;;;6368759;22;20351;-72
2021/09/09 02:58:25;;;;;;;10.07;9.07;;;;;;;;;;6368460;22;20372;-72
2021/09/09 03:00:51;;;;;;;9.10;8.30;;;;;;;;;;6368868;22;20905;-73
2021/09/09 03:06:20;;;;;;;9.90;8.90;;;;;;;;;;6379366;22;20753;-73
2021/09/09 03:08:46;;;;;;;9.80;9.00;;;;;;;;;;6379685;22;20383;-72
2021/09/09 03:11:12;;;;;;;9.53;8.73;;;;;;;;;;6368440;22;20375;-71
2021/09/09 03:13:38;;;;;;;10.37;9.47;;;;;;;;;;6368852;22;20371;-72
2021/09/09 03:16:05;;;;;;;11.80;8.97;;;;;;;;;;6368642;22;20439;-71
2021/09/09 03:21:34;;;;;;;12.13;9.17;;;;;;;;;;6379471;22;20361;-72
2021/09/09 03:24:00;;;;;;;10.30;9.30;;;;;;;;;;6368933;22;20379;-72
2021/09/09 03:26:26;;;;;;;9.33;8.53;;;;;;;;;;6368255;22;20875;-72
2021/09/09 03:28:52;;;;;;;9.70;8.80;;;;;;;;;;6368783;22;20359;-73
2021/09/09 03:37:06;;;;;;;10.17;9.07;;;;;;;;;;6379412;22;20467;-72
2021/09/09 03:39:32;;;;;;;9.70;8.77;;;;;;;;;;6368575;22;20391;-72
2021/09/09 03:41:58;;;;;;;9.50;8.60;;;;;;;;;;6367928;22;20656;-71
2021/09/09 03:44:24;;;;;;;10.83;9.60;;;;;;;;;;6340384;22;20572;-72
2021/09/09 03:46:50;;;;;;;10.93;9.90;;;;;;;;;;6368111;22;20449;-72
2021/09/09 03:49:16;;;;;;;9.83;8.63;;;;;;;;;;6379128;22;20383;-72
2021/09/09 03:51:42;;;;;;;10.40;9.30;;;;;;;;;;6368391;22;20814;-72
2021/09/09 03:54:08;;;;;;;10.17;9.17;;;;;;;;;;6368562;22;20436;-71
2021/09/09 03:56:34;;;;;;;10.00;9.10;;;;;;;;;;6368414;22;20747;-73
2021/09/09 03:59:00;;;;;;;10.60;9.50;;;;;;;;;;6368932;22;20382;-73
2021/09/09 04:01:26;;;;;;;9.97;8.37;;;;;;;;;;6379154;22;20618;-72
2021/09/09 04:03:52;;;;;;;11.60;9.90;;;;;;;;;;6368717;22;20481;-72
2021/09/09 04:06:20;;;;;;;9.67;8.77;;;;;;;;;;6379433;22;20754;-72
2021/09/09 04:08:46;;;;;;;10.37;9.23;;;;;;;;;;6379870;22;20375;-72
2021/09/09 04:11:12;;;;;;;10.73;9.73;;;;;;;;;;6370149;22;20667;-73
2021/09/09 04:13:38;;;;;;;10.63;9.53;;;;;;;;;;6370116;22;20351;-72
2021/09/09 04:16:04;;;;;;;11.90;8.90;;;;;;;;;;6381056;22;20406;-72
2021/09/09 04:21:33;;;;;;;10.20;9.10;;;;;;;;;;6380709;22;20683;-71
2021/09/09 04:23:59;;;;;;;9.40;8.50;;;;;;;;;;6369942;22;20446;-72
2021/09/09 04:26:25;;;;;;;10.03;9.00;;;;;;;;;;6369480;22;20814;-72
2021/09/09 04:28:51;;;;;;;11.27;9.20;;;;;;;;;;6381057;22;20374;-72
2021/09/09 04:31:17;;;;;;;10.30;9.30;;;;;;;;;;6370341;22;20702;-72
2021/09/09 04:36:47;;;;;;;10.67;9.57;;;;;;;;;;6381055;22;20548;-72
2021/09/09 04:39:13;;;;;;;9.73;8.83;;;;;;;;;;6370168;22;20849;-72
2021/09/09 04:41:39;;;;;;;10.40;9.47;;;;;;;;;;6380820;22;20713;-72
2021/09/09 04:44:05;;;;;;;10.20;8.90;;;;;;;;;;6369914;22;20371;-72
2021/09/09 04:46:32;;;;;;;10.07;9.07;;;;;;;;;;6380601;22;20435;-72
2021/09/09 04:52:01;;;;;;;11.87;8.77;;;;;;;;;;6380503;22;20373;-73
2021/09/09 04:54:27;;;;;;;10.30;8.87;;;;;;;;;;6341804;22;20410;-72
2021/09/09 04:56:53;;;;;;;9.47;8.53;;;;;;;;;;6369858;22;20846;-72
2021/09/09 04:59:19;;;;;;;10.53;9.30;;;;;;;;;;6369682;22;20423;-72
2021/09/09 05:01:45;;;;;;;10.93;9.83;;;;;;;;;;6369803;22;20375;-72
2021/09/09 05:04:11;;;;;;;9.60;8.43;;;;;;;;;;6370027;22;20383;-72
2021/09/09 05:06:37;;;;;;;10.83;8.33;;;;;;;;;;6369829;22;20508;-72
2021/09/09 05:09:03;;;;;;;10.77;9.77;;;;;;;;;;6380999;22;20372;-72
2021/09/09 05:11:29;;;;;;;11.17;8.70;;;;;;;;;;6370299;22;20363;-72
2021/09/09 05:13:55;;;;;;;9.20;8.30;;;;;;;;;;6370006;22;20359;-72
2021/09/09 05:16:21;;;;;;;9.30;8.40;;;;;;;;;;6341994;22;20854;-72
2021/09/09 05:21:51;;;;;;;9.23;8.40;;;;;;;;;;6380133;22;20891;-73
2021/09/09 05:24:17;;;;;;;9.70;8.80;;;;;;;;;;6369823;22;20827;-73
2021/09/09 05:26:43;;;;;;;10.50;9.00;;;;;;;;;;6369466;22;20527;-73
2021/09/09 05:29:09;;;;;;;10.80;8.90;;;;;;;;;;6366000;22;20726;-72
2021/09/09 05:31:35;;;;;;;9.87;8.63;;;;;;;;;;6341612;22;20406;-72
2021/09/09 05:37:04;;;;;;;10.30;9.37;;;;;;;;;;6380130;22;20423;-72
2021/09/09 05:39:30;;;;;;;9.30;8.40;;;;;;;;;;6369541;22;20367;-71
2021/09/09 05:41:56;;;;;;;10.93;9.83;;;;;;;;;;6369303;22;20515;-72
2021/09/09 05:44:22;;;;;;;11.07;9.67;;;;;;;;;;6369604;22;20371;-71
2021/09/09 05:46:48;;;;;;;10.30;9.30;;;;;;;;;;6368853;22;20426;-72
2021/09/09 05:52:17;;;;;;;10.10;9.03;;;;;;;;;;6379686;22;20670;-72
2021/09/09 05:54:43;;;;;;;9.33;8.53;;;;;;;;;;6369315;22;20367;-72
2021/09/09 05:57:09;;;;;;;9.90;8.90;;;;;;;;;;6368951;22;20404;-73
2021/09/09 05:59:35;;;;;;;11.90;9.07;;;;;;;;;;6369237;22;20391;-71
2021/09/09 06:02:01;;;;;;;9.93;8.93;;;;;;;;;;6369278;22;20713;-72
2021/09/09 06:07:31;;;;;;;9.80;8.67;;;;;;;;;;6379879;22;20447;-72
2021/09/09 06:09:57;;;;;;;12.30;9.03;;;;;;;;;;6369437;22;20359;-72
2021/09/09 06:12:26;;;;;;;11.40;10.23;;;;;;;;;;6369197;22;20397;-72
2021/09/09 06:14:52;;;;;;;9.70;8.60;;;;;;;;;;6369341;22;20364;-72
2021/09/09 06:17:18;;;;;;;9.40;8.33;;;;;;;;;;6379774;22;20375;-72
2021/09/09 06:19:44;;;;;;;10.27;9.30;;;;;;;;;;6380081;22;20381;-72
2021/09/09 06:22:10;;;;;;;13.47;9.30;;;;;;;;;;6368981;22;20371;-71
2021/09/09 06:24:36;;;;;;;9.70;8.70;;;;;;;;;;6368754;22;20363;-71
2021/09/09 06:27:02;;;;;;;12.03;10.03;;;;;;;;;;6368460;22;20449;-71
2021/09/09 06:29:28;;;;;;;10.80;9.27;;;;;;;;;;6369310;22;20359;-71
2021/09/09 06:31:54;;;;;;;15.20;9.53;;;;;;;;;;6369070;22;20775;-71
2021/09/09 06:37:24;;;;;;;15.60;9.07;;;;;;;;;;6379051;22;20920;-71
2021/09/09 06:39:50;;;;;;;11.10;9.47;;;;;;;;;;6368794;22;20367;-70
2021/09/09 06:42:16;;;;;;;11.60;9.10;;;;;;;;;;6368623;22;20366;-71
2021/09/09 06:44:42;;;;;;;18.63;8.50;;;;;;;;;;6379589;22;20383;-72
2021/09/09 06:47:08;;;;;;;10.30;8.93;;;;;;;;;;6368527;22;20419;-70
2021/09/09 06:52:37;;;;;;;10.03;8.90;;;;;;;;;;6378972;22;20492;-71
2021/09/09 06:55:04;;;;;;;10.20;9.23;;;;;;;;;;6368359;22;20398;-73
2021/09/09 06:57:30;;;;;;;11.63;9.10;;;;;;;;;;6368619;22;20400;-72
2021/09/09 06:59:56;;;;;;;9.70;8.37;;;;;;;;;;6340793;22;20489;-71
2021/09/09 07:02:21;;;;;;;8.20;7.50;;;;;;;;;;6368902;22;20367;-71
2021/09/09 07:07:51;;;;;;;11.97;9.40;;;;;;;;;;6379717;22;20436;-72
2021/09/09 07:10:18;;;;;;;12.80;9.80;;;;;;;;;;6368953;22;20826;-72
2021/09/09 07:12:44;;;;;;;11.53;8.63;;;;;;;;;;6369185;22;20367;-72
2021/09/09 07:15:10;;;;;;;9.47;8.60;;;;;;;;;;6368500;22;20359;-72
2021/09/09 07:17:36;;;;;;;14.57;10.07;;;;;;;;;;6368383;22;20382;-70
2021/09/09 07:23:05;;;;;;;10.40;8.40;;;;;;;;;;6379633;22;20513;-71
2021/09/09 07:25:31;;;;;;;9.20;8.00;;;;;;;;;;6368419;22;20478;-73
2021/09/09 07:27:57;;;;;;;7.63;6.97;;;;;;;;;;6379458;22;20385;-75
2021/09/09 07:30:23;;;;;;;8.57;7.80;;;;;;;;;;6379488;22;20364;-74
2021/09/09 07:32:49;;;;;;;8.60;7.80;;;;;;;;;;6376955;22;20427;-72
2021/09/09 07:35:15;;;;;;;7.90;7.20;;;;;;;;;;6378827;22;20806;-72
2021/09/09 07:37:41;;;;;;;9.20;7.57;;;;;;;;;;6379897;22;20372;-72
2021/09/09 07:40:08;;;;;;;8.17;7.47;;;;;;;;;;6368604;22;20386;-71
2021/09/09 07:42:34;;;;;;;8.80;7.90;;;;;;;;;;6369027;22;20461;-71
2021/09/09 07:45:00;;;;;;;7.57;6.90;;;;;;;;;;6370017;22;20382;-71
2021/09/09 07:47:26;;;;;;;8.80;6.97;;;;;;;;;;6381270;22;20475;-71
2021/09/09 07:52:56;;;;;;;7.67;6.87;;;;;;;;;;6381570;22;20467;-70
2021/09/09 07:55:22;;;;;;;8.10;7.40;;;;;;;;;;6370343;22;20375;-72
2021/09/09 07:57:48;;;;;;;7.30;6.70;;;;;;;;;;6381282;22;20378;-72
2021/09/09 08:00:15;;;;;;;7.97;7.17;;;;;;;;;;6380843;22;20682;-72
2021/09/09 08:02:41;;;;;;;7.70;6.90;;;;;;;;;;6381065;22;20362;-72
2021/09/09 08:08:10;;;;;;;7.17;6.30;;;;;;;;;;6380895;22;20451;-72
2021/09/09 08:10:36;;;;;;;7.30;6.20;;;;;;;;;;6380648;22;20359;-71
2021/09/09 08:13:02;;;;;;;7.57;6.87;;;;;;;;;;6381097;22;20455;-72
2021/09/09 08:15:28;;;;;;;7.53;6.93;;;;;;;;;;6380584;22;20374;-70
2021/09/09 08:17:54;;;;;;;7.30;6.70;;;;;;;;;;6369999;22;20375;-71
2021/09/09 08:23:24;;;;;;;9.27;7.20;;;;;;;;;;6380548;22;20374;-71
2021/09/09 08:25:51;;;;;;;7.87;7.17;;;;;;;;;;6379604;22;20434;-72
2021/09/09 08:28:17;;;;;;;8.23;7.43;;;;;;;;;;6380523;22;20379;-72
2021/09/09 08:30:44;;;;;;;7.97;7.27;;;;;;;;;;6370143;22;20459;-72
2021/09/09 08:33:10;;;;;;;7.80;6.80;;;;;;;;;;6369895;22;20394;-72
2021/09/09 08:38:39;;;;;;;8.43;7.47;;;;;;;;;;6380746;22;20370;-72
2021/09/09 08:41:05;;;;;;;12.57;7.97;;;;;;;;;;6376967;22;20393;-71
2021/09/09 08:43:32;;;;;;;7.67;6.97;;;;;;;;;;6380551;22;20373;-72
2021/09/09 08:45:59;;;;;;;7.30;6.70;;;;;;;;;;6380263;22;20429;-71
2021/09/09 08:48:27;;;;;;;6.90;6.30;;;;;;;;;;6370059;22;20491;-72
2021/09/09 08:53:57;;;;;;;6.67;6.00;;;;;;;;;;6380702;22;20440;-71
2021/09/09 08:56:23;;;;;;;6.00;5.50;;;;;;;;;;6369370;22;20466;-71
2021/09/09 08:58:49;;;;;;;6.57;5.60;;;;;;;;;;6380462;22;20682;-71
2021/09/09 09:01:19;;;;;;;6.87;6.27;;;;;;;;;;6380382;22;20828;-72
2021/09/09 09:03:56;;;;;;;6.77;6.13;;;;;;;;;;6369739;22;20372;-72
2021/09/09 09:06:26;;;;;;;9.63;6.87;;;;;;;;;;6370192;22;20752;-72
2021/09/09 09:08:53;;;;;;;7.43;6.80;;;;;;;;;;6370410;22;20854;-72
2021/09/09 09:11:25;;;;;;;6.90;6.30;;;;;;;;;;6380250;22;20391;-72
2021/09/09 09:13:51;;;;;;;7.13;6.53;;;;;;;;;;6380476;22;20356;-71
2021/09/09 09:16:17;;;;;;;9.00;7.80;;;;;;;;;;6380391;22;20374;-71
2021/09/09 09:18:43;;;;;;;7.73;6.77;;;;;;;;;;6380295;22;20387;-71
2021/09/09 09:21:09;;;;;;;6.90;6.40;;;;;;;;;;6380219;22;20375;-71
2021/09/09 09:23:35;;;;;;;7.30;6.70;;;;;;;;;;6380252;22;20660;-71
2021/09/09 09:26:03;;;;;;;7.97;7.27;;;;;;;;;;6379900;22;20487;-71
2021/09/09 09:28:35;;;;;;;7.37;6.30;;;;;;;;;;6380120;22;20383;-72
2021/09/09 09:31:02;;;;;;;6.93;6.13;;;;;;;;;;6379735;22;20373;-72
2021/09/09 09:33:32;;;;;;;7.87;7.03;;;;;;;;;;6379922;22;20378;-72
2021/09/09 09:39:14;;;;;;;8.53;6.47;;;;;;;;;;6379816;22;20454;-72
2021/09/09 09:41:41;;;;;;;7.30;6.70;;;;;;;;;;6369382;22;20703;-72
2021/09/09 09:44:08;;;;;;;7.70;6.70;;;;;;;;;;6379938;22;20355;-71
2021/09/09 09:46:34;;;;;;;7.60;6.90;;;;;;;;;;6379751;22;20953;-72
2021/09/09 09:49:16;;;;;;;7.73;6.67;;;;;;;;;;6369226;22;20371;-72
2021/09/09 09:51:43;;;;;;;7.80;7.20;;;;;;;;;;6379580;22;20359;-72
2021/09/09 09:54:10;;;;;;;7.77;7.07;;;;;;;;;;6379895;22;20366;-73
2021/09/09 09:56:36;;;;;;;7.20;6.60;;;;;;;;;;6379682;22;20364;-73
2021/09/09 09:59:03;;;;;;;9.10;6.30;;;;;;;;;;6369425;22;20423;-72
2021/09/09 10:01:30;;;;;;;7.30;6.70;;;;;;;;;;6369344;22;20382;-72
2021/09/09 10:03:57;;;;;;;8.17;7.43;;;;;;;;;;6379635;22;20830;-72
2021/09/09 10:06:23;;;;;;;7.20;6.60;;;;;;;;;;6379579;22;20499;-72
2021/09/09 10:08:50;;;;;;;6.50;6.00;;;;;;;;;;6379448;22;20351;-72
2021/09/09 10:11:16;;;;;;;6.83;6.17;;;;;;;;;;6379326;22;20363;-72
2021/09/09 10:13:42;;;;;;;7.30;6.60;;;;;;;;;;6379539;22;20358;-72
2021/09/09 10:16:08;;;;;;;6.77;6.27;;;;;;;;;;6369448;22;20386;-72
2021/09/09 10:18:36;;;;;;;6.63;6.00;;;;;;;;;;6368561;22;20366;-72
2021/09/09 10:24:08;;;;;;;9.63;6.40;;;;;;;;;;6379567;22;20419;-71
2021/09/09 10:26:34;;;;;;;5.80;5.30;;;;;;;;;;6368593;22;20936;-71
2021/09/09 10:29:00;;;;;;;5.43;4.93;;;;;;;;;;6379317;22;20383;-71
2021/09/09 10:31:37;;;;;;;6.27;5.73;;;;;;;;;;6379388;22;20379;-72
2021/09/09 10:39:55;;;;;;;5.67;5.10;;;;;;;;;;6378578;22;20381;-71
2021/09/09 10:42:37;;;;;;;6.50;5.90;;;;;;;;;;6378808;22;20840;-72
2021/09/09 10:45:04;;;;;;;7.17;6.27;;;;;;;;;;6378734;22;20671;-71
2021/09/09 10:47:30;;;;;;;7.17;5.97;;;;;;;;;;6367953;22;20427;-71
2021/09/09 10:50:02;;;;;;;5.57;5.10;;;;;;;;;;6368292;22;20407;-72
2021/09/09 10:52:28;;;;;;;7.30;6.50;;;;;;;;;;6378846;22;20810;-71
2021/09/09 10:55:01;;;;;;;5.40;4.90;;;;;;;;;;6379028;22;20363;-72
2021/09/09 10:57:27;;;;;;;7.07;5.70;;;;;;;;;;6367733;22;20380;-72
2021/09/09 10:59:52;;;;;;;6.07;5.57;;;;;;;;;;6377715;22;20367;-72
2021/09/09 11:02:19;;;;;;;5.27;4.87;;;;;;;;;;6377302;22;20380;-72
2021/09/09 11:04:48;;;;;;;5.40;4.90;;;;;;;;;;6377176;22;20395;-72
2021/09/09 11:07:23;;;;;;;5.47;4.97;;;;;;;;;;6338702;22;20462;-73
2021/09/09 11:10:08;;;;;;;5.60;5.10;;;;;;;;;;6367308;22;20452;-72
2021/09/09 11:12:43;;;;;;;4.40;4.00;;;;;;;;;;6376508;22;20628;-73
2021/09/09 11:15:13;;;;;;;5.73;4.50;;;;;;;;;;6367186;22;20383;-72
2021/09/09 11:17:39;;;;;;;5.83;5.33;;;;;;;;;;6377449;22;20378;-72
2021/09/09 11:20:09;;;;;;;6.67;4.70;;;;;;;;;;6378216;22;20372;-72
2021/09/09 11:22:36;;;;;;;6.60;5.93;;;;;;;;;;6368861;22;20370;-72
2021/09/09 11:25:03;;;;;;;6.93;5.10;;;;;;;;;;6379588;22;20459;-71
2021/09/09 11:27:30;;;;;;;4.70;4.40;;;;;;;;;;6379057;22;20795;-71
2021/09/09 11:30:00;;;;;;;9.20;5.60;;;;;;;;;;6380036;22;20363;-71
2021/09/09 11:32:26;;;;;;;5.73;5.13;;;;;;;;;;6340933;22;20395;-73
2021/09/09 11:34:52;;;;;;;5.63;4.83;;;;;;;;;;6379214;22;20421;-72
2021/09/09 11:37:18;;;;;;;5.67;5.17;;;;;;;;;;6379305;22;20741;-73
2021/09/09 11:39:44;;;;;;;5.53;5.03;;;;;;;;;;6369122;22;20442;-71
2021/09/09 11:42:10;;;;;;;7.63;5.27;;;;;;;;;;6379301;22;20424;-71
2021/09/09 11:44:37;;;;;;;7.20;5.43;;;;;;;;;;6380060;22;20363;-72
2021/09/09 11:47:14;;;;;;;5.33;4.83;;;;;;;;;;6379907;22;20454;-72
2021/09/09 11:49:40;;;;;;;5.97;5.20;;;;;;;;;;6378829;22;20362;-72
2021/09/09 11:52:07;;;;;;;6.27;5.00;;;;;;;;;;6380142;22;20815;-72
2021/09/09 11:54:34;;;;;;;6.87;5.93;;;;;;;;;;6380219;22;20450;-72
2021/09/09 11:57:07;;;;;;;5.67;5.07;;;;;;;;;;6368936;22;20818;-72
2021/09/09 11:59:34;;;;;;;5.70;5.20;;;;;;;;;;6379966;22;20370;-73
2021/09/09 12:02:06;;;;;;;5.30;4.90;;;;;;;;;;6380006;22;20374;-72
2021/09/09 12:04:32;;;;;;;8.80;5.63;;;;;;;;;;6379808;22;20856;-72
2021/09/09 12:10:03;;;;;;;5.43;4.97;;;;;;;;;;6379495;22;20734;-72
2021/09/09 12:12:31;;;;;;;5.43;4.70;;;;;;;;;;6368289;22;20968;-72
2021/09/09 12:14:58;;;;;;;5.53;5.03;;;;;;;;;;6379358;22;20401;-72
2021/09/09 12:17:24;;;;;;;6.03;5.53;;;;;;;;;;6379460;22;20371;-72
2021/09/09 12:19:54;;;;;;;8.23;5.20;;;;;;;;;;6340755;22;20394;-73
2021/09/09 12:22:20;;;;;;;6.07;5.47;;;;;;;;;;6340988;22;20444;-72
2021/09/09 12:24:46;;;;;;;5.83;5.33;;;;;;;;;;6379706;22;20367;-73
2021/09/09 12:27:16;;;;;;;5.67;5.07;;;;;;;;;;6379182;22;20453;-72
2021/09/09 12:29:44;;;;;;;5.63;5.10;;;;;;;;;;6378461;22;20436;-73
2021/09/09 12:32:27;;;;;;;5.67;5.07;;;;;;;;;;6379745;22;20363;-72
2021/09/09 12:34:53;;;;;;;6.30;5.00;;;;;;;;;;6340796;22;20755;-73
2021/09/09 12:40:36;;;;;;;6.07;4.93;;;;;;;;;;6378996;22;20374;-73
2021/09/09 12:43:19;;;;;;;5.70;5.17;;;;;;;;;;6377791;22;20521;-72
2021/09/09 12:45:47;;;;;;;5.90;5.30;;;;;;;;;;6378807;22;20445;-73
2021/09/09 12:48:13;;;;;;;6.00;5.50;;;;;;;;;;6378879;22;20393;-72
2021/09/09 12:50:39;;;;;;;8.60;4.70;;;;;;;;;;6341004;22;20415;-72
2021/09/09 12:53:05;;;;;;;5.70;5.20;;;;;;;;;;6379778;22;20371;-72
2021/09/09 12:55:31;;;;;;;5.77;4.43;;;;;;;;;;6379491;22;20367;-72
2021/09/09 12:57:57;;;;;;;5.30;4.90;;;;;;;;;;6369647;22;20830;-72
2021/09/09 13:00:23;;;;;;;5.37;4.87;;;;;;;;;;6379254;22;20367;-72
2021/09/09 13:02:49;;;;;;;5.10;4.70;;;;;;;;;;6379570;22;20375;-72
2021/09/09 13:05:15;;;;;;;6.00;5.50;;;;;;;;;;6378437;22;20370;-72
2021/09/09 13:07:41;;;;;;;5.27;4.77;;;;;;;;;;6378920;22;20394;-72
2021/09/09 13:10:07;;;;;;;7.23;5.60;;;;;;;;;;6378846;22;20691;-72
2021/09/09 13:12:33;;;;;;;7.33;5.13;;;;;;;;;;6378683;22;20371;-72
2021/09/09 13:14:59;;;;;;;5.17;4.67;;;;;;;;;;6369020;22;20389;-71
2021/09/09 13:17:25;;;;;;;9.07;5.90;;;;;;;;;;6378980;22;20379;-72
2021/09/09 13:19:51;;;;;;;6.03;5.53;;;;;;;;;;6368147;22;20462;-71
2021/09/09 13:25:21;;;;;;;6.47;5.70;;;;;;;;;;6378327;22;20459;-71
2021/09/09 13:27:47;;;;;;;5.90;5.40;;;;;;;;;;6378721;22;20449;-71
2021/09/09 13:30:13;;;;;;;5.47;4.97;;;;;;;;;;6379038;22;20371;-71
2021/09/09 13:32:39;;;;;;;6.87;5.50;;;;;;;;;;6340924;22;20403;-70
2021/09/09 13:35:05;;;;;;;5.03;4.63;;;;;;;;;;6380700;22;20375;-71
2021/09/09 13:40:34;;;;;;;7.10;4.97;;;;;;;;;;6380740;22;20378;-73
2021/09/09 13:43:00;;;;;;;4.30;4.00;;;;;;;;;;6380636;22;20861;-73
2021/09/09 13:45:26;;;;;;;4.57;4.27;;;;;;;;;;6381008;22;20512;-74
2021/09/09 13:47:52;;;;;;;5.10;4.60;;;;;;;;;;6381076;22;20379;-73
2021/09/09 13:50:18;;;;;;;4.50;4.10;;;;;;;;;;6380173;22;20371;-73
2021/09/09 13:55:51;;;;;;;5.20;4.70;;;;;;;;;;6380915;22;20448;-73
2021/09/09 13:58:17;;;;;;;5.17;4.77;;;;;;;;;;6381009;22;20367;-73
2021/09/09 14:00:43;;;;;;;5.43;4.83;;;;;;;;;;6381010;22;20378;-73
2021/09/09 14:03:09;;;;;;;6.67;4.90;;;;;;;;;;6380978;22;20367;-73
2021/09/09 14:05:35;;;;;;;5.53;4.60;;;;;;;;;;6341729;22;20399;-73
2021/09/09 14:11:04;;;;;;;5.20;4.80;;;;;;;;;;6380759;22;20739;-74
2021/09/09 14:13:30;;;;;;;9.13;4.57;;;;;;;;;;6380874;22;20379;-74
2021/09/09 14:15:56;;;;;;;5.07;4.37;;;;;;;;;;6380716;22;20778;-74
2021/09/09 14:18:22;;;;;;;5.60;4.20;;;;;;;;;;6380767;22;20372;-73
2021/09/09 14:20:49;;;;;;;5.00;4.60;;;;;;;;;;6380705;22;20363;-74
2021/09/09 14:23:16;;;;;;;5.13;4.63;;;;;;;;;;6369622;22;20383;-73
2021/09/09 14:25:42;;;;;;;4.83;4.47;;;;;;;;;;6380187;22;20919;-73
2021/09/09 14:28:08;;;;;;;6.70;4.40;;;;;;;;;;6380819;22;20395;-75
2021/09/09 14:30:33;;;;;;;4.97;4.57;;;;;;;;;;6380866;22;20834;-74
2021/09/09 14:32:59;;;;;;;5.50;5.00;;;;;;;;;;6380648;22;20363;-74
2021/09/09 14:35:25;;;;;;;5.63;4.30;;;;;;;;;;6380756;22;20364;-74
2021/09/09 14:40:55;;;;;;;4.37;4.00;;;;;;;;;;6380508;22;20402;-75
2021/09/09 14:43:21;;;;;;;4.90;4.10;;;;;;;;;;6379930;22;20363;-74
2021/09/09 14:45:47;;;;;;;5.13;4.60;;;;;;;;;;6370386;22;20430;-73
2021/09/09 14:48:13;;;;;;;5.97;4.40;;;;;;;;;;6380785;22;20440;-74
2021/09/09 14:50:39;;;;;;;5.13;4.63;;;;;;;;;;6380753;22;20372;-74
2021/09/09 14:56:08;;;;;;;7.10;4.60;;;;;;;;;;6380467;22;20427;-75
2021/09/09 14:58:34;;;;;;;5.07;4.67;;;;;;;;;;6370327;22;20507;-74
2021/09/09 15:01:00;;;;;;;4.80;4.40;;;;;;;;;;6369616;22;20386;-74
2021/09/09 15:03:27;;;;;;;5.47;4.97;;;;;;;;;;6370152;22;20390;-74
2021/09/09 15:05:53;;;;;;;4.30;3.90;;;;;;;;;;6370172;22;20505;-74
2021/09/09 15:11:22;;;;;;;4.60;4.20;;;;;;;;;;6380283;22;20549;-74
2021/09/09 15:13:48;;;;;;;5.10;4.17;;;;;;;;;;6370062;22;20368;-73
2021/09/09 15:16:14;;;;;;;4.03;3.63;;;;;;;;;;6369699;22;20937;-73
2021/09/09 15:18:40;;;;;;;5.50;4.37;;;;;;;;;;6379429;22;20399;-73
2021/09/09 15:21:06;;;;;;;9.30;5.40;;;;;;;;;;6380314;22;20718;-73
2021/09/09 15:23:32;;;;;;;5.60;5.10;;;;;;;;;;6370208;22;20464;-74
2021/09/09 15:25:58;;;;;;;7.87;5.17;;;;;;;;;;6380086;22;20446;-74
2021/09/09 15:28:25;;;;;;;5.40;5.00;;;;;;;;;;6380380;22;20374;-74
2021/09/09 15:30:51;;;;;;;6.00;5.50;;;;;;;;;;6380465;22;20414;-74
2021/09/09 15:33:17;;;;;;;5.00;4.50;;;;;;;;;;6380444;22;20688;-74
2021/09/09 15:35:44;;;;;;;5.50;5.10;;;;;;;;;;6380445;22;20402;-73
2021/09/09 15:41:13;;;;;;;5.60;5.10;;;;;;;;;;6380218;22;20381;-73
2021/09/09 15:43:39;;;;;;;5.67;5.17;;;;;;;;;;6380289;22;20981;-73
2021/09/09 15:46:05;;;;;;;5.70;5.20;;;;;;;;;;6369924;22;20423;-73
2021/09/09 15:48:32;;;;;;;6.83;5.50;;;;;;;;;;6380074;22;20394;-74
2021/09/09 15:50:58;;;;;;;6.80;5.97;;;;;;;;;;6380399;22;20856;-73
2021/09/09 15:56:27;;;;;;;5.27;4.70;;;;;;;;;;6374314;22;20377;-73
2021/09/09 15:58:53;;;;;;;6.07;5.20;;;;;;;;;;6380028;22;20371;-74
2021/09/09 16:01:20;;;;;;;6.00;4.43;;;;;;;;;;6368748;22;20692;-74
2021/09/09 16:03:46;;;;;;;5.33;4.63;;;;;;;;;;6369631;22;20382;-75
2021/09/09 16:06:12;;;;;;;5.23;4.50;;;;;;;;;;6371050;22;20423;-75
2021/09/09 16:11:41;;;;;;;5.00;4.60;;;;;;;;;;6375979;22;20423;-75
2021/09/09 16:14:07;;;;;;;5.60;5.10;;;;;;;;;;6370402;22;20721;-74
2021/09/09 16:16:33;;;;;;;4.80;4.40;;;;;;;;;;6380988;22;20403;-73
2021/09/09 16:18:59;;;;;;;4.90;4.47;;;;;;;;;;6380787;22;20367;-74
2021/09/09 16:21:25;;;;;;;5.00;4.50;;;;;;;;;;6376696;22;20450;-73
2021/09/09 16:26:55;;;;;;;8.80;6.73;;;;;;;;;;6374006;22;20456;-73
2021/09/09 16:29:21;;;;;;;14.93;8.70;;;;;;;;;;6379041;22;20382;-72
2021/09/09 16:31:47;;;;;;;9.43;7.90;;;;;;;;;;6378914;22;20379;-73
2021/09/09 16:34:13;;;;;;;7.87;6.30;;;;;;;;;;6378915;22;20837;-74
2021/09/09 16:36:39;;;;;;;6.07;5.53;;;;;;;;;;6379238;22;20862;-73
2021/09/09 16:39:05;;;;;;;6.33;5.70;;;;;;;;;;6377903;22;20371;-73
2021/09/09 16:41:31;;;;;;;16.07;14.47;;;;;;;;;;6377882;22;20371;-73
2021/09/09 16:43:57;;;;;;;15.83;14.13;;;;;;;;;;6378150;22;20367;-72
2021/09/09 16:46:23;;;;;;;8.07;7.27;;;;;;;;;;6377840;22;20426;-72
2021/09/09 16:48:51;;;;;;;6.27;5.70;;;;;;;;;;6378579;22;20825;-72
2021/09/09 16:51:16;;;;;;;10.73;8.20;;;;;;;;;;6368402;22;20447;-72
2021/09/09 16:56:49;;;;;;;6.40;5.00;;;;;;;;;;6378707;22;20420;-74
2021/09/09 16:59:25;;;;;;;5.73;5.20;;;;;;;;;;6367663;22;20842;-73
2021/09/09 17:01:51;;;;;;;7.00;5.07;;;;;;;;;;6378781;22;20660;-73